ADDS METAR Data INFO
IDs: Format: Raw Decoded Include TAF

Data at: 0431 UTC 21 Nov 2017

K5C1 210415Z AUTO 20006KT 10SM CLR 12/07 A3002 RMK AO1
K5C1 210355Z AUTO 21004KT 10SM CLR 10/05 A3003 RMK AO1
K5C1 210335Z AUTO 20004KT 10SM CLR 07/02 A3003 RMK AO1
K5C1 210315Z AUTO 00000KT 10SM CLR 07/01 A3003 RMK AO1
K5C1 210255Z AUTO 20003KT 10SM CLR 08/01 A3003 RMK AO1
K5C1 210235Z AUTO 20004KT 10SM CLR 07/01 A3004 RMK AO1
K5C1 210215Z AUTO 18004KT 10SM CLR 07/01 A3004 RMK AO1
K5C1 210155Z AUTO 00000KT 10SM CLR 07/00 A3003 RMK AO1
K5C1 210135Z AUTO 00000KT 10SM CLR 07/00 A3003 RMK AO1
K5C1 210115Z AUTO 00000KT 10SM CLR 08/00 A3004 RMK AO1
K5C1 210055Z AUTO 00000KT 10SM CLR 09/00 A3004 RMK AO1
K5C1 210035Z AUTO 00000KT 10SM CLR 10/00 A3004 RMK AO1
K5C1 210015Z AUTO 00000KT 10SM CLR 11/00 A3003 RMK AO1
K5C1 202355Z AUTO 00000KT 10SM CLR 13/00 A3003 RMK AO1
K5C1 202335Z AUTO 00000KT 10SM CLR 15/00 A3003 RMK AO1
K5C1 202315Z AUTO 19004KT 10SM CLR 16/M01 A3003 RMK AO1
K5C1 202255Z AUTO 19005KT 10SM CLR 16/M01 A3003 RMK AO1
K5C1 202235Z AUTO 21006KT 10SM CLR 17/M02 A3003 RMK AO1
K5C1 202215Z AUTO 18007KT 10SM CLR 17/M02 A3003 RMK AO1
K5C1 202155Z AUTO 19007KT 10SM CLR 17/M02 A3004 RMK AO1
K5C1 202135Z AUTO 22007KT 10SM CLR 17/M02 A3004 RMK AO1
K5C1 202115Z AUTO 19007KT 10SM CLR 18/M01 A3004 RMK AO1
K5C1 202055Z AUTO 19007KT 10SM CLR 17/M02 A3006 RMK AO1
K5C1 202035Z AUTO 19009G16KT 160V220 10SM CLR 17/M01 A3006 RMK AO1
K5C1 202015Z AUTO 21009KT 10SM CLR 17/M01 A3007 RMK AO1
K5C1 201955Z AUTO 18007KT 10SM CLR 17/00 A3007 RMK AO1
K5C1 201935Z AUTO 20008G15KT 10SM CLR 17/M01 A3008 RMK AO1
K5C1 201915Z AUTO 19008KT 10SM CLR 17/M01 A3010 RMK AO1
K5C1 201855Z AUTO 18008KT 10SM CLR 16/M01 A3013 RMK AO1
K5C1 201835Z AUTO 16008KT 140V200 10SM CLR 16/M01 A3014 RMK AO1
K5C1 201815Z AUTO 17008KT 10SM CLR 16/M01 A3016 RMK AO1
K5C1 201755Z AUTO 20010KT 10SM CLR 15/M01 A3017 RMK AO1
K5C1 201735Z AUTO 17010KT 150V210 10SM CLR 15/M01 A3018 RMK AO1
K5C1 201715Z AUTO 21007KT 160V230 10SM CLR 15/M01 A3019 RMK AO1
K5C1 201655Z AUTO 20007KT 10SM CLR 14/M01 A3020 RMK AO1
K5C1 201635Z AUTO 18004KT 10SM CLR 13/00 A3022 RMK AO1
K5C1 201615Z AUTO 17004KT 10SM CLR 13/00 A3022 RMK AO1
K5C1 201555Z AUTO 13003KT 10SM CLR 12/00 A3023 RMK AO1
K5C1 201535Z AUTO 15003KT 10SM CLR 11/00 A3022 RMK AO1
K5C1 201515Z AUTO 17005KT 10SM CLR 10/00 A3022 RMK AO1
K5C1 201455Z AUTO 16003KT 10SM CLR 10/00 A3023 RMK AO1
K5C1 201435Z AUTO 00000KT 10SM CLR 07/02 A3022 RMK AO1
K5C1 201415Z AUTO 00000KT 10SM CLR 05/01 A3022 RMK AO1
K5C1 201355Z AUTO 00000KT 10SM CLR 02/01 A3022 RMK AO1
K5C1 201335Z AUTO 00000KT 10SM CLR 01/00 A3021 RMK AO1
K5C1 201315Z AUTO 00000KT 10SM CLR 01/00 A3020 RMK AO1
K5C1 201255Z AUTO 00000KT 10SM CLR 01/00 A3019 RMK AO1
K5C1 201235Z AUTO 00000KT 10SM CLR 01/00 A3020 RMK AO1
K5C1 201215Z AUTO 00000KT 10SM CLR 01/00 A3019 RMK AO1
K5C1 201155Z AUTO 00000KT 10SM CLR 01/00 A3018 RMK AO1
K5C1 201135Z AUTO 00000KT 10SM CLR 01/00 A3018 RMK AO1
K5C1 201115Z AUTO 00000KT 10SM CLR 01/00 A3018 RMK AO1
K5C1 201055Z AUTO 00000KT 10SM CLR 02/00 A3019 RMK AO1
K5C1 201035Z AUTO 00000KT 10SM CLR 02/00 A3019 RMK AO1
K5C1 201015Z AUTO 00000KT 10SM CLR 02/00 A3020 RMK AO1
K5C1 200955Z AUTO 00000KT 10SM CLR 02/00 A3020 RMK AO1
K5C1 200935Z AUTO 00000KT 10SM CLR 02/00 A3020 RMK AO1
K5C1 200910Z AUTO 00000KT 10SM CLR 02/00 A3020 RMK AO1
K5C1 200855Z AUTO 00000KT 10SM CLR 02/00 A3020 RMK AO1
K5C1 200835Z AUTO 00000KT 10SM CLR 02/00 A3020 RMK AO1
K5C1 200815Z AUTO 00000KT 10SM CLR 03/00 A3020 RMK AO1
K5C1 200755Z AUTO 00000KT 10SM CLR 03/00 A3021 RMK AO1
K5C1 200735Z AUTO 00000KT 10SM CLR 03/00 A3022 RMK AO1
K5C1 200715Z AUTO 00000KT 10SM CLR 04/01 A3023 RMK AO1
K5C1 200655Z AUTO 00000KT 10SM CLR 04/00 A3023 RMK AO1
K5C1 200635Z AUTO 00000KT 10SM CLR 04/00 A3023 RMK AO1
K5C1 200615Z AUTO 00000KT 10SM CLR 05/01 A3023 RMK AO1
K5C1 200555Z AUTO 00000KT 10SM CLR 04/00 A3023 RMK AO1
K5C1 200535Z AUTO 00000KT 10SM CLR 03/00 A3024 RMK AO1
K5C1 200515Z AUTO 00000KT 10SM CLR 03/00 A3024 RMK AO1
K5C1 200455Z AUTO 00000KT 10SM CLR 04/01 A3024 RMK AO1
K5C1 200435Z AUTO 00000KT 10SM CLR 04/01 A3025 RMK AO1
K5C1 200415Z AUTO 00000KT 10SM CLR 04/00 A3025 RMK AO1
K5C1 200355Z AUTO 00000KT 10SM CLR 04/00 A3026 RMK AO1
K5C1 200335Z AUTO 00000KT 10SM CLR 04/00 A3026 RMK AO1
K5C1 200315Z AUTO 00000KT 10SM CLR 04/00 A3026 RMK AO1
K5C1 200255Z AUTO 00000KT 10SM CLR 04/00 A3026 RMK AO1
K5C1 200235Z AUTO 00000KT 10SM CLR 05/00 A3026 RMK AO1
K5C1 200215Z AUTO 00000KT 10SM CLR 05/00 A3026 RMK AO1
K5C1 200155Z AUTO 00000KT 10SM CLR 06/00 A3025 RMK AO1
K5C1 200135Z AUTO 00000KT 10SM CLR 06/00 A3025 RMK AO1
K5C1 200115Z AUTO 00000KT 10SM CLR 06/00 A3025 RMK AO1
K5C1 200055Z AUTO 00000KT 10SM CLR 06/00 A3025 RMK AO1
K5C1 200035Z AUTO 00000KT 10SM CLR 07/00 A3025 RMK AO1
K5C1 200015Z AUTO 00000KT 10SM CLR 08/00 A3025 RMK AO1
K5C1 192355Z AUTO 00000KT 10SM CLR 08/M01 A3025 RMK AO1
K5C1 192335Z AUTO 00000KT 10SM CLR 10/M02 A3025 RMK AO1
K5C1 192315Z AUTO 00000KT 10SM CLR 12/M04 A3024 RMK AO1
K5C1 192255Z AUTO 00000KT 10SM CLR 13/M04 A3024 RMK AO1
K5C1 192235Z AUTO 09003KT 10SM CLR 13/M05 A3024 RMK AO1
K5C1 192215Z AUTO 00000KT 10SM CLR 14/M06 A3025 RMK AO1
K5C1 192155Z AUTO 08003KT 10SM CLR 15/M05 A3025 RMK AO1
K5C1 192135Z AUTO 00000KT 10SM CLR 14/M06 A3026 RMK AO1
K5C1 192115Z AUTO 35003KT 10SM CLR 15/M05 A3026 RMK AO1
K5C1 192055Z AUTO 11004KT 10SM CLR 15/M05 A3027 RMK AO1
K5C1 192035Z AUTO 08004KT 10SM CLR 15/M05 A3027 RMK AO1
K5C1 192015Z AUTO 08003KT 10SM CLR 15/M06 A3028 RMK AO1
K5C1 191955Z AUTO 06006KT 10SM CLR 15/M06 A3029 RMK AO1
K5C1 191935Z AUTO 02006KT 10SM CLR 15/M05 A3030 RMK AO1
K5C1 191915Z AUTO 04009KT 10SM CLR 15/M05 A3031 RMK AO1
K5C1 191855Z AUTO 05007KT 10SM CLR 15/M05 A3032 RMK AO1
K5C1 191835Z AUTO 08006KT 050V130 10SM CLR 15/M06 A3034 RMK AO1
K5C1 191815Z AUTO 06005KT 10SM CLR 13/M05 A3035 RMK AO1
K5C1 191755Z AUTO 04008KT 10SM CLR 14/M03 A3037 RMK AO1
K5C1 191735Z AUTO 04006KT 10SM CLR 14/M03 A3038 RMK AO1
K5C1 191715Z AUTO 02011G14KT 10SM CLR 13/M03 A3039 RMK AO1
K5C1 191655Z AUTO 03006KT 10SM CLR 13/M03 A3040 RMK AO1
K5C1 191635Z AUTO 07010KT 10SM CLR 12/M03 A3041 RMK AO1